Time;durP1;ratioP1;P1;durP2;ratioP2;P2;SDS_P1;SDS_P2;PMS_P1;PMS_P2;Temp;Humidity;BMP_temperature;BMP_pressure;BME280_temperature;BME280_humidity;BME280_pressure;Samples;Min_cycle;Max_cycle;Signal;HPM_P1;HPM_P2
2022/10/11 00:01:04;;;;;;;12.40;5.60;;;;;;;6.40;100.00;102408.44;2611745;36;20027;-59
2022/10/11 00:03:32;;;;;;;15.98;5.68;;;;;;;6.46;100.00;102410.81;2612492;31;20034;-59
2022/10/11 00:06:01;;;;;;;11.05;4.90;;;;;;;6.43;100.00;102408.28;2613425;31;20038;-59
2022/10/11 00:08:30;;;;;;;12.30;4.85;;;;;;;6.39;100.00;102409.38;2612188;31;20035;-58
2022/10/11 00:11:04;;;;;;;10.15;5.13;;;;;;;6.39;100.00;102412.03;2612434;31;20034;-58
2022/10/11 00:13:32;;;;;;;12.02;4.93;;;;;;;6.34;100.00;102409.56;2612261;36;20038;-59
2022/10/11 00:16:00;;;;;;;9.68;4.38;;;;;;;6.32;100.00;102406.13;2612525;36;20057;-59
2022/10/11 00:18:29;;;;;;;11.65;4.80;;;;;;;6.29;100.00;102411.59;2613400;31;20041;-59
2022/10/11 00:21:05;;;;;;;8.90;4.57;;;;;;;6.29;100.00;102412.47;2612766;36;20042;-58
2022/10/11 00:23:34;;;;;;;10.57;4.75;;;;;;;6.28;100.00;102410.72;2612571;36;20042;-58
2022/10/11 00:26:08;;;;;;;11.68;4.85;;;;;;;6.31;100.00;102425.75;2614644;36;20023;-58
2022/10/11 00:28:37;;;;;;;7.75;4.40;;;;;;;6.35;100.00;102421.16;2615106;31;20030;-58
2022/10/11 00:31:09;;;;;;;6.15;4.05;;;;;;;6.25;100.00;102413.53;2615296;36;20562;-58
2022/10/11 00:33:37;;;;;;;9.43;4.60;;;;;;;6.20;100.00;102412.91;2616008;36;20048;-57
2022/10/11 00:36:06;;;;;;;11.63;5.45;;;;;;;6.22;100.00;102416.34;2614964;36;20048;-58
2022/10/11 00:38:36;;;;;;;12.10;4.40;;;;;;;6.18;100.00;102422.78;2616232;36;20392;-58
2022/10/11 00:41:07;;;;;;;15.23;6.10;;;;;;;6.15;100.00;102422.91;2615433;36;20038;-58
2022/10/11 00:43:36;;;;;;;8.55;4.93;;;;;;;6.16;100.00;102434.50;2615984;36;20030;-57
2022/10/11 00:46:08;;;;;;;12.85;5.57;;;;;;;6.20;100.00;102426.25;2614337;36;20069;-57
2022/10/11 00:48:43;;;;;;;13.35;5.32;;;;;;;6.11;100.00;102432.00;2616753;36;20049;-59
2022/10/11 00:51:18;;;;;;;10.50;5.05;;;;;;;6.05;100.00;102434.94;2615326;36;20034;-58
2022/10/11 00:53:49;;;;;;;10.20;5.80;;;;;;;6.00;100.00;102431.63;2615510;36;20061;-58
2022/10/11 00:56:25;;;;;;;11.32;5.10;;;;;;;5.93;100.00;102428.31;2613214;36;20030;-57
2022/10/11 00:58:56;;;;;;;10.85;5.30;;;;;;;5.96;100.00;102434.41;2611744;36;20038;-58
2022/10/11 01:01:27;;;;;;;8.52;4.70;;;;;;;6.00;100.00;102431.63;2612842;36;20023;-58
2022/10/11 01:03:55;;;;;;;14.77;6.18;;;;;;;5.95;100.00;102435.34;2613067;31;20519;-58
2022/10/11 01:06:24;;;;;;;8.57;4.32;;;;;;;5.95;100.00;102440.69;2612762;36;20038;-58
2022/10/11 01:08:53;;;;;;;12.02;5.03;;;;;;;5.95;100.00;102438.00;2611044;36;20030;-59
2022/10/11 01:11:27;;;;;;;11.90;5.28;;;;;;;5.83;100.00;102435.88;2612162;36;20022;-59
2022/10/11 01:14:11;;;;;;;8.25;4.80;;;;;;;5.78;100.00;102440.53;2612069;31;20053;-57
2022/10/11 01:16:51;;;;;;;11.10;4.95;;;;;;;5.80;100.00;102438.69;2615981;36;20061;-57
2022/10/11 01:19:37;;;;;;;10.25;5.90;;;;;;;5.85;100.00;102433.13;2616158;31;20030;-59
2022/10/11 01:22:21;;;;;;;9.73;4.50;;;;;;;5.87;100.00;102449.97;2615652;31;20026;-57
2022/10/11 01:25:18;;;;;;;12.25;5.40;;;;;;;5.91;100.00;102452.44;2613974;36;20034;-59
2022/10/11 01:28:16;;;;;;;14.73;5.40;;;;;;;5.98;100.00;102445.06;2613584;36;20478;-58
2022/10/11 01:30:48;;;;;;;12.07;4.93;;;;;;;6.00;100.00;102437.84;2613845;36;20041;-58
2022/10/11 01:33:28;;;;;;;13.25;4.97;;;;;;;5.91;100.00;102439.06;2615464;36;20053;-56
2022/10/11 01:36:06;;;;;;;12.27;5.05;;;;;;;5.95;100.00;102451.38;2614874;36;20677;-57
2022/10/11 01:38:39;;;;;;;10.50;4.63;;;;;;;5.94;100.00;102454.97;2616404;36;20057;-56
2022/10/11 01:41:11;;;;;;;12.30;5.93;;;;;;;5.96;100.00;102453.13;2615599;36;20085;-57
2022/10/11 01:43:42;;;;;;;12.57;4.82;;;;;;;5.97;100.00;102454.00;2615711;36;20023;-57
2022/10/11 01:46:14;;;;;;;9.35;5.03;;;;;;;5.95;100.00;102456.72;2614837;36;20075;-58
2022/10/11 01:48:50;;;;;;;9.35;4.82;;;;;;;5.94;100.00;102462.97;2612442;36;20034;-58
2022/10/11 01:51:23;;;;;;;8.65;4.47;;;;;;;5.90;100.00;102464.06;2613630;36;20038;-58
2022/10/11 01:54:10;;;;;;;11.82;5.20;;;;;;;5.85;100.00;102455.38;2613824;36;20559;-57
2022/10/11 01:57:11;;;;;;;10.30;5.50;;;;;;;5.82;100.00;102458.19;2613849;36;20026;-58
2022/10/11 01:59:53;;;;;;;10.23;4.57;;;;;;;5.77;100.00;102468.19;2611664;31;20030;-58
2022/10/11 02:02:39;;;;;;;8.57;4.43;;;;;;;5.76;100.00;102466.47;2612581;31;20570;-58
2022/10/11 02:05:14;;;;;;;9.25;4.88;;;;;;;5.78;100.00;102469.94;2613120;36;20555;-58
2022/10/11 02:07:46;;;;;;;9.02;4.70;;;;;;;5.73;100.00;102462.13;2611552;36;20562;-58
2022/10/11 02:10:22;;;;;;;13.77;4.95;;;;;;;5.76;100.00;102461.13;2612625;36;20530;-58
2022/10/11 02:12:57;;;;;;;10.20;5.20;;;;;;;5.81;100.00;102464.44;2612405;36;20045;-59
2022/10/11 02:15:31;;;;;;;9.05;4.43;;;;;;;5.72;100.00;102464.84;2611594;36;20030;-57
2022/10/11 02:18:07;;;;;;;7.53;4.10;;;;;;;5.76;100.00;102463.78;2615124;31;20045;-58
2022/10/11 02:20:39;;;;;;;12.48;4.78;;;;;;;5.78;100.00;102473.47;2616755;36;20435;-58
2022/10/11 02:23:15;;;;;;;9.77;4.68;;;;;;;5.79;100.00;102469.00;2616116;36;20808;-57
2022/10/11 02:25:45;;;;;;;13.05;5.30;;;;;;;5.91;100.00;102471.13;2615352;36;20037;-57
2022/10/11 02:28:20;;;;;;;13.85;4.75;;;;;;;5.96;100.00;102460.25;2616577;31;20030;-58
2022/10/11 02:30:51;;;;;;;10.68;4.28;;;;;;;5.98;100.00;102469.13;2613338;36;20443;-59
2022/10/11 02:33:31;;;;;;;9.32;4.40;;;;;;;6.02;100.00;102468.06;2614107;36;20034;-58
2022/10/11 02:36:07;;;;;;;10.18;5.03;;;;;;;6.03;100.00;102468.91;2613348;36;20023;-59
2022/10/11 02:38:41;;;;;;;8.93;4.90;;;;;;;6.16;100.00;102474.59;2614918;36;20034;-59
2022/10/11 02:41:16;;;;;;;12.63;4.60;;;;;;;6.30;100.00;102470.38;2614357;36;20043;-59
2022/10/11 02:43:49;;;;;;;11.68;5.25;;;;;;;6.24;100.00;102473.31;2614636;36;20034;-58
2022/10/11 02:46:18;;;;;;;10.50;4.95;;;;;;;6.25;100.00;102475.03;2613963;36;20030;-59
2022/10/11 02:48:49;;;;;;;12.43;4.53;;;;;;;6.24;100.00;102477.78;2614032;36;20035;-58
2022/10/11 02:51:20;;;;;;;11.95;4.70;;;;;;;6.22;100.00;102483.19;2614475;36;20030;-58
2022/10/11 02:53:48;;;;;;;13.65;5.03;;;;;;;6.21;100.00;102473.44;2615275;36;20601;-58
2022/10/11 02:56:16;;;;;;;13.40;5.10;;;;;;;6.18;100.00;102484.25;2614997;31;20038;-58
2022/10/11 02:58:45;;;;;;;11.82;4.40;;;;;;;6.25;100.00;102480.38;2611570;36;20037;-57
2022/10/11 03:01:13;;;;;;;9.40;4.47;;;;;;;6.31;100.00;102482.78;2615292;31;20480;-58
2022/10/11 03:03:41;;;;;;;12.15;5.20;;;;;;;6.26;100.00;102484.81;2613799;36;20313;-57
2022/10/11 03:06:14;;;;;;;15.93;4.93;;;;;;;6.19;100.00;102488.69;2612936;36;20046;-58
2022/10/11 03:08:42;;;;;;;11.82;4.85;;;;;;;6.13;100.00;102488.97;2615580;36;20022;-58
2022/10/11 03:11:10;;;;;;;10.95;4.65;;;;;;;6.14;100.00;102493.38;2613093;36;20035;-58
2022/10/11 03:13:39;;;;;;;10.95;4.53;;;;;;;6.14;100.00;102488.03;2614436;36;20053;-57
2022/10/11 03:16:07;;;;;;;11.98;5.07;;;;;;;6.21;100.00;102489.47;2613850;36;20042;-58
2022/10/11 03:18:36;;;;;;;13.05;5.05;;;;;;;6.16;100.00;102496.84;2616006;36;20547;-59
2022/10/11 03:21:04;;;;;;;13.48;4.45;;;;;;;6.12;100.00;102488.09;2615247;36;20073;-59
2022/10/11 03:23:35;;;;;;;8.88;4.35;;;;;;;6.16;100.00;102491.50;2616264;36;20438;-58
2022/10/11 03:26:03;;;;;;;13.02;4.15;;;;;;;6.10;100.00;102489.09;2615365;36;20046;-57
2022/10/11 03:28:32;;;;;;;11.35;4.07;;;;;;;6.12;100.00;102495.22;2615797;31;20022;-59
2022/10/11 03:31:00;;;;;;;13.88;4.40;;;;;;;6.30;100.00;102491.75;2615158;36;20034;-59
2022/10/11 03:33:28;;;;;;;11.75;4.25;;;;;;;6.47;100.00;102491.00;2614383;36;20435;-57
2022/10/11 03:35:57;;;;;;;12.68;3.88;;;;;;;6.48;100.00;102498.09;2615985;36;20042;-58
2022/10/11 03:38:25;;;;;;;11.88;5.03;;;;;;;6.45;100.00;102500.03;2616070;31;20033;-58
2022/10/11 03:40:56;;;;;;;11.10;4.60;;;;;;;6.56;100.00;102500.41;2615433;31;20538;-58
2022/10/11 03:43:25;;;;;;;13.35;4.82;;;;;;;6.54;100.00;102507.66;2616156;36;20041;-59
2022/10/11 03:45:53;;;;;;;14.07;5.07;;;;;;;6.66;100.00;102501.72;2616242;36;20030;-58
2022/10/11 03:48:21;;;;;;;15.13;5.00;;;;;;;6.74;100.00;102508.53;2614992;31;20039;-58
2022/10/11 03:50:50;;;;;;;9.35;4.22;;;;;;;6.68;100.00;102504.31;2615555;36;20430;-58
2022/10/11 03:53:18;;;;;;;9.30;4.63;;;;;;;6.61;100.00;102509.09;2615965;36;20031;-58
2022/10/11 03:55:46;;;;;;;14.32;4.60;;;;;;;6.59;100.00;102507.44;2615242;36;20037;-59
2022/10/11 03:58:17;;;;;;;11.75;4.47;;;;;;;6.44;100.00;102517.88;2616331;36;20033;-58
2022/10/11 04:00:45;;;;;;;10.43;4.55;;;;;;;6.53;100.00;102516.59;2615196;36;20057;-58
2022/10/11 04:03:14;;;;;;;13.73;5.10;;;;;;;6.65;100.00;102515.19;2616545;31;20150;-58
2022/10/11 04:05:42;;;;;;;9.50;4.75;;;;;;;6.79;100.00;102510.06;2616114;36;20033;-59
2022/10/11 04:08:11;;;;;;;13.98;5.15;;;;;;;6.64;100.00;102506.28;2615771;36;20046;-57
2022/10/11 04:10:39;;;;;;;18.52;4.72;;;;;;;6.57;100.00;102512.00;2616239;31;20023;-58
2022/10/11 04:13:07;;;;;;;11.60;5.28;;;;;;;6.56;100.00;102516.47;2616562;31;20426;-58
2022/10/11 04:15:40;;;;;;;15.45;5.88;;;;;;;6.66;100.00;102512.44;2614759;36;20049;-58
2022/10/11 04:18:08;;;;;;;13.98;4.97;;;;;;;6.62;100.00;102509.97;2615933;31;20047;-58
2022/10/11 04:20:37;;;;;;;16.90;4.65;;;;;;;6.66;100.00;102509.75;2616349;36;20134;-58
2022/10/11 04:23:08;;;;;;;14.80;5.50;;;;;;;6.70;100.00;102512.28;2616438;54;20571;-58
2022/10/11 04:25:36;;;;;;;19.17;4.80;;;;;;;6.71;100.00;102527.41;2615492;31;20030;-57
2022/10/11 04:28:06;;;;;;;16.23;4.90;;;;;;;6.75;100.00;102534.38;2615945;36;20034;-56
2022/10/11 04:30:37;;;;;;;12.18;4.75;;;;;;;6.59;100.00;102532.38;2615713;36;20558;-58
2022/10/11 04:33:05;;;;;;;8.23;3.67;;;;;;;6.58;100.00;102536.00;2616554;36;20041;-58
2022/10/11 04:35:34;;;;;;;9.70;4.57;;;;;;;6.54;100.00;102539.75;2615835;36;20536;-58
2022/10/11 04:38:02;;;;;;;11.68;3.90;;;;;;;6.48;100.00;102534.69;2615583;36;20035;-58
2022/10/11 04:40:30;;;;;;;9.75;4.28;;;;;;;6.41;100.00;102542.09;2615580;36;20034;-58
2022/10/11 04:42:59;;;;;;;10.95;4.05;;;;;;;6.57;100.00;102544.09;2616212;36;20033;-58
2022/10/11 04:45:28;;;;;;;12.73;4.07;;;;;;;6.77;100.00;102546.75;2614890;36;20119;-57
2022/10/11 04:47:58;;;;;;;12.07;3.88;;;;;;;6.78;100.00;102544.94;2616565;36;20130;-59
2022/10/11 04:50:27;;;;;;;11.45;4.30;;;;;;;6.66;100.00;102549.03;2615264;36;20065;-58
2022/10/11 04:52:55;;;;;;;9.05;3.65;;;;;;;6.74;100.00;102546.84;2614906;36;20026;-58
2022/10/11 04:55:23;;;;;;;9.90;3.70;;;;;;;6.64;100.00;102549.09;2615417;36;20041;-59
2022/10/11 04:57:51;;;;;;;10.77;4.22;;;;;;;6.79;100.00;102549.34;2614986;36;20041;-58
2022/10/11 05:00:20;;;;;;;12.23;3.65;;;;;;;6.83;100.00;102554.50;2614617;36;20046;-58
2022/10/11 05:02:49;;;;;;;10.73;3.85;;;;;;;6.97;100.00;102543.13;2614461;36;20051;-58
2022/10/11 05:05:20;;;;;;;7.55;3.67;;;;;;;6.96;100.00;102546.78;2613627;36;20367;-58
2022/10/11 05:07:49;;;;;;;10.85;3.70;;;;;;;6.77;100.00;102559.22;2613859;36;20057;-58
2022/10/11 05:10:17;;;;;;;10.18;3.67;;;;;;;6.78;100.00;102558.31;2614741;31;20050;-58
2022/10/11 05:12:45;;;;;;;11.90;3.20;;;;;;;6.86;100.00;102561.50;2614634;36;20038;-57
2022/10/11 05:15:14;;;;;;;11.65;3.70;;;;;;;6.90;100.00;102555.06;2614561;36;20026;-57
2022/10/11 05:17:42;;;;;;;9.55;2.97;;;;;;;6.84;100.00;102558.88;2615222;36;20531;-58
2022/10/11 05:20:11;;;;;;;10.05;3.33;;;;;;;6.87;100.00;102563.22;2613836;31;20034;-59
2022/10/11 05:22:42;;;;;;;9.52;3.58;;;;;;;6.92;100.00;102560.34;2614775;36;20427;-57
2022/10/11 05:25:11;;;;;;;9.20;3.33;;;;;;;6.88;100.00;102566.78;2615564;36;20042;-58
2022/10/11 05:27:39;;;;;;;12.90;3.55;;;;;;;7.04;100.00;102558.91;2614613;36;20035;-59
2022/10/11 05:30:09;;;;;;;9.40;3.80;;;;;;;7.18;100.00;102556.47;2614100;36;20038;-58
2022/10/11 05:32:37;;;;;;;8.77;3.53;;;;;;;7.39;100.00;102567.09;2598563;36;20519;-57
2022/10/11 05:35:06;;;;;;;9.77;3.58;;;;;;;7.29;100.00;102569.38;2615931;36;20034;-57
2022/10/11 05:37:34;;;;;;;11.80;3.90;;;;;;;7.22;100.00;102568.78;2615692;36;20030;-58
2022/10/11 05:40:06;;;;;;;12.40;3.72;;;;;;;7.20;100.00;102565.31;2616102;36;20050;-58
2022/10/11 05:42:34;;;;;;;11.00;3.38;;;;;;;7.32;100.00;102570.06;2615143;36;20538;-58
2022/10/11 05:45:03;;;;;;;10.57;3.83;;;;;;;7.31;100.00;102567.47;2615209;36;20034;-58
2022/10/11 05:47:31;;;;;;;14.07;3.63;;;;;;;7.36;100.00;102574.34;2616409;36;20041;-58
2022/10/11 05:49:59;;;;;;;14.02;4.85;;;;;;;7.46;100.00;102577.44;2616045;36;20031;-58
2022/10/11 05:52:27;;;;;;;11.73;3.88;;;;;;;7.57;100.00;102566.22;2615482;36;20118;-58
2022/10/11 05:54:56;;;;;;;10.38;3.78;;;;;;;7.53;100.00;102575.34;2614049;36;20045;-58
2022/10/11 05:57:27;;;;;;;10.15;3.53;;;;;;;7.55;100.00;102576.13;2615790;36;20038;-57
2022/10/11 05:59:55;;;;;;;12.38;3.38;;;;;;;7.56;100.00;102585.91;2613515;36;20023;-58
2022/10/11 06:02:23;;;;;;;7.28;3.45;;;;;;;7.62;100.00;102577.56;2616354;36;20090;-58
2022/10/11 06:04:52;;;;;;;14.50;4.38;;;;;;;7.63;100.00;102590.03;2615556;36;20031;-59
2022/10/11 06:07:20;;;;;;;13.50;3.70;;;;;;;7.63;100.00;102583.81;2615094;36;20034;-59
2022/10/11 06:09:48;;;;;;;7.38;3.55;;;;;;;7.65;100.00;102582.78;2614356;36;20057;-59
2022/10/11 06:12:16;;;;;;;12.98;3.53;;;;;;;7.84;100.00;102584.56;2615780;36;20491;-58
2022/10/11 06:14:47;;;;;;;10.45;4.38;;;;;;;7.81;100.00;102588.25;2613284;36;20590;-58
2022/10/11 06:17:16;;;;;;;14.57;4.82;;;;;;;7.91;100.00;102591.38;2615909;36;20606;-58
2022/10/11 06:19:44;;;;;;;7.65;3.60;;;;;;;7.85;100.00;102580.94;2608705;36;20037;-58
2022/10/11 06:22:13;;;;;;;9.75;3.67;;;;;;;7.85;100.00;102594.34;2615036;36;20038;-58
2022/10/11 06:24:41;;;;;;;19.45;4.40;;;;;;;7.75;100.00;102598.44;2615915;36;20034;-58
2022/10/11 06:27:10;;;;;;;18.40;4.10;;;;;;;7.94;100.00;102596.56;2615564;36;20023;-58
2022/10/11 06:29:38;;;;;;;9.43;3.65;;;;;;;7.94;100.00;102596.56;2614378;36;20034;-59
2022/10/11 06:32:12;;;;;;;10.65;3.40;;;;;;;7.99;100.00;102591.84;2613438;36;20031;-58
2022/10/11 06:34:40;;;;;;;16.70;4.10;;;;;;;8.07;100.00;102600.38;2612171;36;20035;-58
2022/10/11 06:37:08;;;;;;;10.03;3.57;;;;;;;8.10;100.00;102601.16;2613058;36;20033;-58
2022/10/11 06:39:37;;;;;;;8.90;3.60;;;;;;;8.23;100.00;102600.47;2614408;36;20026;-59
2022/10/11 06:42:05;;;;;;;13.73;3.72;;;;;;;8.30;100.00;102610.88;2615497;36;20142;-58
2022/10/11 06:44:33;;;;;;;10.17;3.00;;;;;;;8.03;100.00;102605.97;2614986;36;20023;-58
2022/10/11 06:47:02;;;;;;;9.77;3.67;;;;;;;8.02;100.00;102607.78;2616540;36;20435;-58
2022/10/11 06:49:33;;;;;;;8.93;3.03;;;;;;;8.01;100.00;102615.88;2615976;36;20547;-58
2022/10/11 06:52:01;;;;;;;10.23;3.75;;;;;;;8.05;100.00;102617.47;2611616;36;20057;-58
2022/10/11 06:54:29;;;;;;;10.82;3.95;;;;;;;8.00;100.00;102620.41;2614733;36;20034;-59
2022/10/11 06:56:57;;;;;;;7.95;3.35;;;;;;;8.03;100.00;102622.06;2613839;36;20035;-58
2022/10/11 06:59:26;;;;;;;13.27;3.85;;;;;;;8.00;100.00;102620.41;2614539;36;20034;-58
2022/10/11 07:01:54;;;;;;;11.02;4.38;;;;;;;8.02;100.00;102629.25;2615892;36;20049;-59
2022/10/11 07:04:22;;;;;;;8.70;3.58;;;;;;;8.04;100.00;102635.41;2615094;36;20030;-59
2022/10/11 07:06:53;;;;;;;7.82;3.70;;;;;;;8.09;100.00;102637.00;2614728;36;20562;-59
2022/10/11 07:09:21;;;;;;;10.20;3.40;;;;;;;8.06;100.00;102646.91;2614895;36;20556;-58
2022/10/11 07:11:50;;;;;;;13.52;3.97;;;;;;;8.17;100.00;102643.72;2614437;36;20029;-58
2022/10/11 07:14:18;;;;;;;9.98;3.80;;;;;;;8.29;100.00;102639.53;2613816;36;20037;-58
2022/10/11 07:16:46;;;;;;;10.18;3.70;;;;;;;8.48;100.00;102638.63;2615416;36;20042;-58
2022/10/11 07:19:14;;;;;;;11.07;3.50;;;;;;;8.49;100.00;102645.72;2608688;31;20036;-58
2022/10/11 07:21:43;;;;;;;12.52;4.05;;;;;;;8.69;100.00;102655.44;2607611;36;20038;-57
2022/10/11 07:24:13;;;;;;;8.93;3.70;;;;;;;8.91;100.00;102652.50;2615680;36;20455;-58
2022/10/11 07:26:42;;;;;;;14.32;4.30;;;;;;;8.94;100.00;102652.34;2614973;36;20435;-57
2022/10/11 07:29:12;;;;;;;8.43;3.20;;;;;;;9.07;100.00;102652.56;2616373;31;20031;-58
2022/10/11 07:31:42;;;;;;;13.77;4.18;;;;;;;9.12;100.00;102651.34;2616711;31;20447;-58
2022/10/11 07:34:11;;;;;;;8.35;3.75;;;;;;;9.35;100.00;102660.00;2615221;36;20042;-58
2022/10/11 07:36:40;;;;;;;13.68;4.40;;;;;;;9.43;100.00;102659.56;2614280;36;20034;-58
2022/10/11 07:39:09;;;;;;;11.05;3.88;;;;;;;9.45;100.00;102660.34;2614510;36;20045;-58
2022/10/11 07:41:40;;;;;;;8.30;3.88;;;;;;;9.56;100.00;102655.25;2614750;36;20034;-58
2022/10/11 07:44:09;;;;;;;12.07;4.47;;;;;;;9.67;100.00;102656.47;2613842;36;20061;-58
2022/10/11 07:46:37;;;;;;;8.90;4.07;;;;;;;9.73;100.00;102657.00;2615057;36;20027;-58
2022/10/11 07:49:05;;;;;;;10.80;4.13;;;;;;;9.62;100.00;102649.53;2614718;36;20682;-58
2022/10/11 07:51:34;;;;;;;12.30;5.78;;;;;;;9.63;100.00;102651.25;2614903;36;20045;-58
2022/10/11 07:54:04;;;;;;;10.95;4.63;;;;;;;9.82;100.00;102650.25;2613417;36;20034;-59
2022/10/11 07:56:32;;;;;;;12.55;4.25;;;;;;;10.06;100.00;102655.16;2615719;36;20065;-59
2022/10/11 07:59:05;;;;;;;8.82;3.55;;;;;;;10.00;100.00;102659.94;2612298;31;20041;-58
2022/10/11 08:01:34;;;;;;;10.27;4.13;;;;;;;10.06;100.00;102657.84;2615177;36;20041;-58
2022/10/11 08:04:02;;;;;;;13.05;4.95;;;;;;;10.06;100.00;102661.41;2613929;31;20073;-59
2022/10/11 08:06:32;;;;;;;10.82;4.30;;;;;;;10.22;100.00;102666.78;2614649;36;20031;-59
2022/10/11 08:09:02;;;;;;;10.57;5.50;;;;;;;10.36;100.00;102668.69;2615218;31;20041;-59
2022/10/11 08:11:32;;;;;;;25.88;4.82;;;;;;;10.36;100.00;102668.69;2615533;36;20038;-58
2022/10/11 08:14:03;;;;;;;12.13;4.43;;;;;;;10.45;100.00;102678.91;2613610;36;20035;-58
2022/10/11 08:16:34;;;;;;;14.48;4.30;;;;;;;10.57;100.00;102682.72;2613819;36;20416;-58
2022/10/11 08:19:02;;;;;;;11.25;3.80;;;;;;;10.41;100.00;102677.38;2614972;36;20431;-58
2022/10/11 08:21:31;;;;;;;9.88;4.22;;;;;;;10.58;100.00;102686.25;2608278;36;20126;-58
2022/10/11 08:23:59;;;;;;;17.63;4.30;;;;;;;10.56;100.00;102682.81;2615851;36;20531;-58
2022/10/11 08:26:27;;;;;;;11.02;4.05;;;;;;;10.68;100.00;102679.38;2607165;36;20042;-59
2022/10/11 08:28:56;;;;;;;10.10;4.32;;;;;;;10.90;100.00;102683.47;2615660;36;20054;-58
2022/10/11 08:31:24;;;;;;;11.40;4.40;;;;;;;10.99;100.00;102682.91;2616255;36;20027;-58
2022/10/11 08:33:55;;;;;;;9.45;4.18;;;;;;;11.00;100.00;102685.50;2615976;36;20065;-58
2022/10/11 08:36:23;;;;;;;7.75;3.90;;;;;;;11.23;100.00;102691.28;2616689;36;22015;-58
2022/10/11 08:38:52;;;;;;;13.27;4.97;;;;;;;11.17;100.00;102687.16;2614926;36;20562;-59
2022/10/11 08:41:31;;;;;;;12.82;5.03;;;;;;;11.28;100.00;102699.06;2616908;36;20042;-59
2022/10/11 08:44:07;;;;;;;12.43;4.72;;;;;;;11.36;100.00;102691.38;2615532;36;20034;-59
2022/10/11 08:46:37;;;;;;;8.32;4.13;;;;;;;11.49;100.00;102702.28;2616232;36;20038;-59
2022/10/11 08:49:09;;;;;;;10.65;4.18;;;;;;;11.56;100.00;102700.94;2616184;36;20586;-60
2022/10/11 08:51:45;;;;;;;13.35;4.47;;;;;;;11.82;100.00;102698.38;2616176;36;20031;-58
2022/10/11 08:54:20;;;;;;;10.68;4.43;;;;;;;11.87;100.00;102701.66;2615665;36;20035;-59
2022/10/11 08:56:49;;;;;;;12.32;5.32;;;;;;;11.98;100.00;102700.97;2617130;36;20411;-59
2022/10/11 08:59:30;;;;;;;9.27;4.15;;;;;;;12.06;100.00;102704.91;2615185;36;20035;-59
2022/10/11 09:02:08;;;;;;;10.00;4.07;;;;;;;12.16;100.00;102702.50;2614147;36;20031;-59
2022/10/11 09:04:40;;;;;;;10.27;4.20;;;;;;;11.99;100.00;102705.44;2616340;36;20427;-58
2022/10/11 09:07:23;;;;;;;10.98;4.47;;;;;;;12.17;100.00;102703.34;2615483;31;20037;-59
2022/10/11 09:10:06;;;;;;;12.52;3.92;;;;;;;12.11;100.00;102707.31;2615726;36;20034;-59
2022/10/11 09:12:46;;;;;;;10.35;3.67;;;;;;;12.23;100.00;102695.72;2614111;36;20038;-59
2022/10/11 09:15:25;;;;;;;10.70;4.28;;;;;;;12.62;100.00;102702.09;2615525;36;20443;-59
2022/10/11 09:18:12;;;;;;;6.93;3.43;;;;;;;12.62;100.00;102704.78;2614475;36;20041;-59
2022/10/11 09:20:53;;;;;;;11.65;3.50;;;;;;;12.68;100.00;102706.22;2616095;36;20330;-59
2022/10/11 09:23:45;;;;;;;6.65;3.08;;;;;;;12.83;100.00;102704.28;2615626;36;20121;-59
2022/10/11 09:26:21;;;;;;;8.77;3.38;;;;;;;12.64;100.00;102703.84;2607176;36;20231;-59
2022/10/11 09:28:58;;;;;;;14.45;3.92;;;;;;;12.73;100.00;102711.31;2608668;36;20034;-59
2022/10/11 09:31:26;;;;;;;14.50;4.68;;;;;;;12.94;100.00;102714.34;2604010;36;20022;-59
2022/10/11 09:33:56;;;;;;;8.10;3.53;;;;;;;13.10;100.00;102716.88;2613999;31;20038;-59
2022/10/11 09:36:31;;;;;;;11.35;5.35;;;;;;;13.29;100.00;102711.91;2612789;31;20069;-60
2022/10/11 09:39:08;;;;;;;12.23;4.03;;;;;;;13.46;100.00;102718.00;2607985;36;20033;-59
2022/10/11 09:41:43;;;;;;;7.43;3.10;;;;;;;13.59;100.00;102721.56;2614800;36;20431;-59
2022/10/11 09:44:21;;;;;;;10.43;3.50;;;;;;;13.58;100.00;102714.41;2612197;36;20034;-59
2022/10/11 09:46:52;;;;;;;7.07;3.47;;;;;;;13.88;100.00;102715.84;2611980;36;20022;-59
2022/10/11 09:49:23;;;;;;;9.48;3.25;;;;;;;13.82;100.00;102717.19;2611469;36;20034;-59
2022/10/11 09:51:57;;;;;;;12.50;3.40;;;;;;;14.15;100.00;102717.53;2609900;36;20039;-58
2022/10/11 09:54:39;;;;;;;12.77;3.70;;;;;;;14.13;100.00;102714.03;2612047;36;20069;-59
2022/10/11 09:57:08;;;;;;;11.23;2.97;;;;;;;14.42;100.00;102713.72;2612497;36;20041;-59
2022/10/11 09:59:36;;;;;;;12.15;3.00;;;;;;;14.60;100.00;102709.59;2608163;31;20045;-58
2022/10/11 10:02:22;;;;;;;13.85;4.05;;;;;;;14.51;100.00;102713.00;2608609;36;20570;-58
2022/10/11 10:04:59;;;;;;;9.30;3.03;;;;;;;14.82;100.00;102706.13;2604663;36;20042;-58
2022/10/11 10:07:32;;;;;;;8.98;3.30;;;;;;;14.51;100.00;102710.31;2602484;36;20061;-58
2022/10/11 10:10:11;;;;;;;10.30;2.92;;;;;;;14.85;100.00;102705.03;2605795;36;20035;-58
2022/10/11 10:12:39;;;;;;;;;;;;;;;14.90;100.00;102710.97;2609372;36;20034;-59
2022/10/11 10:15:15;;;;;;;10.50;3.40;;;;;;;14.62;100.00;102710.38;2602722;36;19946;-59
2022/10/11 10:17:50;;;;;;;7.72;3.22;;;;;;;14.29;100.00;102708.34;2609217;36;20431;-58
2022/10/11 10:20:23;;;;;;;11.00;3.10;;;;;;;14.23;100.00;102708.81;2604404;36;20199;-57
2022/10/11 10:22:55;;;;;;;11.15;3.33;;;;;;;14.16;100.00;102717.41;2604692;36;20614;-58
2022/10/11 10:25:33;;;;;;;9.55;2.90;;;;;;;14.39;100.00;102705.81;2605039;31;20579;-59
2022/10/11 10:28:03;;;;;;;11.50;3.05;;;;;;;14.70;100.00;102707.09;2601750;36;20057;-59
2022/10/11 10:30:32;;;;;;;6.90;2.63;;;;;;;14.75;100.00;102704.00;2597572;36;20061;-58
2022/10/11 10:33:05;;;;;;;13.43;3.03;;;;;;;15.07;100.00;102712.34;2607838;31;20034;-58
2022/10/11 10:35:37;;;;;;;10.30;2.28;;;;;;;14.98;100.00;102699.53;2603880;36;20706;-58
2022/10/11 10:38:17;;;;;;;6.13;1.83;;;;;;;15.31;100.00;102701.44;2602408;31;20432;-57
2022/10/11 10:40:46;;;;;;;;;;;;;;;15.31;100.00;102701.44;2603470;36;20057;-59
2022/10/11 10:43:17;;;;;;;7.63;1.50;;;;;;;15.20;100.00;102696.00;2604427;36;20455;-59
2022/10/11 10:46:24;;;;;;;9.63;1.85;;;;;;;15.29;100.00;102697.09;2604533;31;20442;-58
2022/10/11 10:49:01;;;;;;;8.85;1.88;;;;;;;15.16;100.00;102697.22;2604581;36;20053;-58
2022/10/11 10:51:40;;;;;;;8.20;1.85;;;;;;;15.42;100.00;102704.13;2604925;36;20046;-58
2022/10/11 10:54:19;;;;;;;6.43;1.55;;;;;;;15.64;100.00;102691.56;2603225;36;20034;-58
2022/10/11 10:56:54;;;;;;;8.73;2.13;;;;;;;15.74;100.00;102692.53;2602833;36;21283;-58
2022/10/11 10:59:45;;;;;;;7.43;1.42;;;;;;;15.69;100.00;102694.75;2601579;36;20038;-59
2022/10/11 11:02:19;;;;;;;7.97;2.03;;;;;;;15.71;100.00;102697.38;2610008;36;20038;-58
2022/10/11 11:04:55;;;;;;;8.23;1.70;;;;;;;15.81;100.00;102692.06;2611434;36;20061;-58
2022/10/11 11:07:30;;;;;;;4.50;1.30;;;;;;;15.91;100.00;102691.16;2610597;31;20038;-58
2022/10/11 11:10:07;;;;;;;9.50;2.33;;;;;;;15.72;100.00;102689.09;2610935;36;20057;-58
2022/10/11 11:12:46;;;;;;;10.02;1.92;;;;;;;15.71;100.00;102686.50;2610159;31;20030;-58
2022/10/11 11:15:20;;;;;;;7.55;1.73;;;;;;;15.86;100.00;102684.41;2610317;31;20038;-57
2022/10/11 11:18:01;;;;;;;8.18;1.70;;;;;;;15.87;100.00;102686.13;2610106;36;20043;-54
2022/10/11 11:20:43;;;;;;;11.15;1.85;;;;;;;15.98;100.00;102690.69;2612898;36;20026;-57
2022/10/11 11:23:22;;;;;;;9.13;1.60;;;;;;;16.09;100.00;102679.78;2612240;36;20049;-58
2022/10/11 11:26:01;;;;;;;5.30;1.45;;;;;;;16.07;100.00;102677.19;2612545;36;20034;-59
2022/10/11 11:28:45;;;;;;;6.40;1.77;;;;;;;16.22;100.00;102674.19;2606560;36;20035;-57
2022/10/11 11:31:25;;;;;;;4.90;1.50;;;;;;;16.09;100.00;102677.94;2611047;31;20137;-58
2022/10/11 11:34:05;;;;;;;6.20;1.55;;;;;;;16.06;100.00;102669.16;2610849;36;20072;-57
2022/10/11 11:36:42;;;;;;;5.15;1.60;;;;;;;16.00;100.00;102670.53;2610354;36;20416;-59
2022/10/11 11:39:18;;;;;;;7.97;1.63;;;;;;;16.16;100.00;102666.56;2611498;31;20085;-57